Latest Weather Observations for Scottsdale

IDT60801

Issued at 12:32 pm EDT Sunday 22 January 2017 (issued every 30 minutes, with the page automatically refreshed every 10 minutes)

About weather observations | Map of weather stations | Latest weather observations for TAS | Other Formats
Station Details ID: 091219 Name: SCOTTSDALE (WEST MINSTONE ROAD) Lat: -41.17 Lon: 147.49 Height: 197.5 m
Data from the previous 72 hours. | See also: Recent months at Scottsdale
Date/Time
EDT
Temp
°C
App
Temp
°C
Dew
Point
°C
Rel
Hum
%
Delta-T
°C
Wind Press
QNH
hPa
Press
MSL
hPa
Rain since
9am
mm
Dir  Spd
km/h
Gust
km/h
Spd
kts
Gust
kts
22/12:30pm 21.3 19.1 12.1 55 5.2 NW 15 28 8 15 1015.0 - 0.0
22/12:00pm 21.5 20.6 12.6 57 5.1 NNW 9 15 5 8 1015.0 1014.7 0.0
22/11:30am 20.5 18.8 11.3 55 5.1 NNW 11 17 6 9 1015.2 - 0.0
22/11:00am 20.4 20.0 12.9 62 4.3 NNW 7 13 4 7 1015.1 - 0.0
22/10:30am 19.0 18.0 12.2 64 3.8 N 9 13 5 7 1015.3 - 0.0
22/10:00am 17.8 17.4 12.4 70 3.0 NNE 6 11 3 6 1015.6 - 0.0
22/09:30am 17.0 16.3 11.9 72 2.8 N 7 11 4 6 1015.7 - 0.0
22/09:00am 17.0 17.0 13.5 80 2.0 ENE 6 11 3 6 1016.0 1015.7 0.0
22/08:30am 16.5 16.6 12.7 78 2.1 ENE 4 7 2 4 1016.1 - 0.0
22/08:00am 16.0 16.5 12.8 81 1.8 SE 2 7 1 4 1015.9 - 0.0
22/07:30am 14.1 13.7 12.3 89 1.0 SSE 6 9 3 5 1015.6 - 0.0
22/07:00am 12.4 11.3 10.7 89 0.9 SE 7 9 4 5 1015.4 - 0.0
22/06:30am 11.1 9.6 9.3 89 0.9 SE 7 9 4 5 1015.2 - 0.0
22/06:00am 10.9 9.4 9.1 89 0.9 SE 7 9 4 5 1014.9 1014.6 0.0
22/05:30am 10.4 8.8 8.8 90 0.8 S 7 9 4 5 1014.6 - 0.0
22/05:00am 11.1 8.4 8.9 86 1.1 SSE 13 15 7 8 1014.1 - 0.0
22/04:30am 10.8 8.1 9.0 89 0.9 SSE 13 15 7 8 1013.7 - 0.0
22/04:00am 11.0 8.5 9.8 92 0.6 SE 13 15 7 8 1013.6 - 0.0
22/03:30am 10.6 10.6 9.8 95 0.4 CALM 0 0 0 0 1013.5 - 0.0
22/03:00am 9.4 8.1 9.2 99 0.1 N 6 7 3 4 1013.4 1013.1 0.0
22/02:30am 10.2 10.2 9.8 97 0.2 CALM 0 6 0 3 1013.4 - 0.0
22/02:00am 11.2 9.8 9.4 89 0.9 E 7 9 4 5 1013.4 - 0.0
22/01:30am 11.6 10.2 9.6 87 1.0 S 7 9 4 5 1013.3 - 0.0
22/01:00am 12.4 10.9 10.5 88 1.0 S 9 13 5 7 1013.6 - 0.0
22/12:30am 11.8 11.2 10.5 92 0.7 SSE 4 13 2 7 1013.7 - 0.0
22/12:00am 9.7 8.3 8.9 95 0.4 ESE 6 7 3 4 1013.8 1013.5 0.0
 
Date/Time
EDT
Temp
°C
App
Temp
°C
Dew
Point
°C
Rel
Hum
%
Delta-T
°C
Wind Press
QNH
hPa
Press
MSL
hPa
Rain since
9am
mm
Dir  Spd
km/h
Gust
km/h
Spd
kts
Gust
kts
21/11:30pm 10.6 10.5 9.4 92 0.6 CALM 0 7 0 4 1013.9 - 0.0
21/11:00pm 11.5 11.6 10.3 92 0.6 CALM 0 0 0 0 1013.9 - 0.0
21/10:30pm 12.7 11.6 10.8 88 1.0 E 7 11 4 6 1013.8 - 0.0
21/10:00pm 14.8 13.9 11.5 80 1.8 WNW 7 9 4 5 1013.8 - 0.0
21/09:30pm 14.8 14.1 11.5 80 1.8 E 6 9 3 5 1013.6 - 0.0
21/09:00pm 15.9 14.7 11.5 75 2.4 NW 9 13 5 7 1013.1 1012.8 0.0
21/08:30pm 16.4 15.2 11.7 74 2.6 NW 9 13 5 7 1012.9 - 0.0
21/08:00pm 17.6 16.1 11.8 69 3.2 WNW 11 20 6 11 1012.4 - 0.0
21/07:30pm 17.8 15.9 11.8 68 3.3 WNW 13 19 7 10 1012.1 - 0.0
21/07:00pm 19.2 16.7 11.2 60 4.4 WNW 15 24 8 13 1011.6 - 0.0
21/06:30pm 19.6 16.8 11.3 58 4.6 WNW 17 24 9 13 1011.3 - 0.0
21/06:00pm 20.3 17.5 11.5 57 4.9 WNW 17 28 9 15 1011.0 1010.7 0.0
21/05:30pm 20.2 16.7 11.0 55 5.1 W 20 32 11 17 1011.0 - 0.0
21/05:00pm 20.5 17.3 11.3 55 5.1 WNW 19 32 10 17 1011.1 - 0.0
21/04:30pm 21.0 17.2 11.3 54 5.4 W 22 32 12 17 1011.1 - 0.0
21/04:00pm 21.0 16.9 11.3 54 5.4 W 24 37 13 20 1010.9 - 0.0
21/03:30pm 20.8 17.4 10.6 52 5.6 W 19 30 10 16 1010.9 - 0.0
21/03:00pm 20.1 16.5 10.0 52 5.5 W 19 33 10 18 1010.9 1010.6 0.0
21/02:30pm 20.0 16.2 8.9 48 5.9 WNW 19 30 10 16 1010.9 - 0.0
21/02:00pm 19.6 16.5 7.4 45 6.3 W 13 24 7 13 1011.0 - 0.0
21/01:30pm 19.3 15.2 7.7 47 6.0 W 19 32 10 17 1011.0 - 0.0
21/01:00pm 19.2 15.2 6.8 44 6.3 W 17 28 9 15 1010.8 - 0.0
21/12:30pm 19.8 15.9 7.1 43 6.5 SW 17 26 9 14 1010.6 - 0.0
21/12:00pm 18.9 15.3 6.6 44 6.2 WSW 15 24 8 13 1010.5 1010.2 0.0
21/11:30am 18.7 14.7 6.6 45 6.1 SW 17 26 9 14 1010.4 - 0.0
21/11:00am 18.2 14.5 6.4 46 5.9 WSW 15 28 8 15 1010.6 - 0.0
21/10:30am 17.3 12.1 5.7 46 5.7 SW 22 30 12 16 1010.6 - 0.0
21/10:00am 16.8 12.3 6.3 50 5.2 SW 19 24 10 13 1010.6 - 0.0
21/09:30am 16.0 13.0 6.0 51 4.9 W 11 19 6 10 1010.5 - 0.0
21/09:00am 15.0 12.2 5.2 52 4.7 WSW 9 19 5 10 1010.3 1010.0 9.4
21/08:30am 13.9 11.5 5.3 56 4.1 W 7 11 4 6 1010.0 - 9.4
21/08:00am 12.9 10.6 4.7 57 3.8 WNW 6 9 3 5 1009.5 - 9.4
21/07:30am 11.7 8.4 4.8 62 3.2 W 11 15 6 8 1009.1 - 9.4
21/07:00am 10.3 7.4 4.6 68 2.6 W 9 15 5 8 1008.6 - 9.4
21/06:30am 10.0 7.4 4.2 67 2.6 WSW 7 13 4 7 1007.9 - 9.4
21/06:00am 9.7 6.0 4.6 70 2.3 SSW 13 17 7 9 1007.1 1006.8 9.4
21/05:30am 10.1 6.9 5.1 71 2.3 SSW 11 15 6 8 1006.8 - 9.4
21/05:00am 10.3 6.1 5.6 72 2.2 S 17 20 9 11 1006.2 - 9.4
21/04:30am 10.4 6.6 5.9 73 2.1 S 15 19 8 10 1005.7 - 9.4
21/04:00am 11.1 8.2 6.5 73 2.2 SSW 11 20 6 11 1005.3 - 9.4
21/03:30am 11.0 8.2 6.8 75 2.0 SSW 11 17 6 9 1005.1 - 9.4
21/03:00am 9.9 8.1 7.0 82 1.4 SSE 6 9 3 5 1004.7 1004.4 9.4
21/02:30am 9.9 8.8 6.8 81 1.5 SSE 2 7 1 4 1004.6 - 9.4
21/02:00am 10.4 8.9 6.9 79 1.7 E 4 9 2 5 1004.6 - 9.4
21/01:30am 8.6 7.9 7.1 90 0.7 CALM 0 0 0 0 1004.7 - 9.4
21/01:00am 10.3 8.6 8.5 89 0.9 SSW 7 9 4 5 1004.6 - 9.4
21/12:30am 11.0 9.5 8.6 85 1.2 SSW 6 11 3 6 1004.4 - 9.4
21/12:00am 11.1 9.1 8.5 84 1.3 S 9 11 5 6 1004.5 1004.2 9.4
 
Date/Time
EDT
Temp
°C
App
Temp
°C
Dew
Point
°C
Rel
Hum
%
Delta-T
°C
Wind Press
QNH
hPa
Press
MSL
hPa
Rain since
9am
mm
Dir  Spd
km/h
Gust
km/h
Spd
kts
Gust
kts
20/11:30pm 13.3 9.3 8.1 71 2.6 S 19 24 10 13 1004.2 - 9.4
20/11:00pm 12.9 9.7 8.6 75 2.2 S 15 19 8 10 1004.0 - 9.4
20/10:30pm 13.3 10.5 8.4 72 2.5 S 13 19 7 10 1003.5 - 9.4
20/10:00pm 13.4 11.0 8.5 72 2.5 S 11 17 6 9 1003.3 - 9.4
20/09:30pm 13.7 11.3 8.8 72 2.5 S 11 17 6 9 1002.3 - 9.4
20/09:00pm 15.1 11.5 8.3 64 3.5 S 17 24 9 13 1002.3 1001.9 9.4
20/08:30pm 14.3 10.8 8.6 68 2.9 S 17 24 9 13 1001.2 - 9.4
20/08:00pm 15.7 12.8 8.3 61 3.8 SSW 13 20 7 11 1000.4 - 9.4
20/07:30pm 16.2 11.6 8.0 58 4.2 S 22 32 12 17 999.7 - 9.4
20/07:00pm 16.9 12.4 8.4 57 4.4 S 22 30 12 16 999.1 - 9.4
20/06:30pm 17.5 13.4 8.5 55 4.7 S 20 32 11 17 998.6 - 9.4
20/06:00pm 17.7 13.3 8.8 56 4.7 SSW 22 32 12 17 997.6 997.2 9.4
20/05:31pm 17.3 11.2 8.3 55 4.6 SSW 30 48 16 26 996.7 - 9.4
20/05:30pm 17.1 10.7 8.5 57 4.4 SSW 32 48 17 26 996.7 - 9.4
20/05:00pm 17.4 10.8 8.6 56 4.6 SSW 33 57 18 31 996.0 - 9.4
20/04:36pm 17.5 10.3 7.6 52 5.0 SSW 35 54 19 29 994.9 - 9.4
20/04:30pm 17.5 10.0 8.1 54 4.8 SSW 37 52 20 28 994.6 - 9.4
20/04:00pm 16.8 9.3 8.1 56 4.5 SSW 37 56 20 30 993.6 - 9.4
20/03:37pm 16.3 10.4 7.7 56 4.4 SSW 28 50 15 27 993.5 - 9.4
20/03:30pm 16.3 11.0 8.4 59 4.1 S 26 35 14 19 993.5 - 9.4
20/03:07pm 15.5 8.9 7.9 60 3.8 S 32 50 17 27 993.3 - 9.4
20/03:00pm 15.4 8.9 8.0 61 3.8 S 32 46 17 25 993.1 992.7 9.4
20/02:37pm 15.0 8.6 8.6 65 3.3 SSW 32 50 17 27 992.5 - 9.4
20/02:30pm 14.8 8.2 8.4 65 3.3 SSW 33 48 18 26 992.4 - 9.4
20/02:01pm 14.3 8.4 8.9 70 2.8 SSW 30 48 16 26 992.4 - 9.4
20/02:00pm 14.3 8.4 8.9 70 2.8 SSW 30 41 16 22 992.4 - 9.4
20/01:30pm 15.9 10.6 9.9 67 3.2 S 28 44 15 24 991.7 - 9.4
20/01:18pm 15.8 10.0 9.6 66 3.3 S 30 50 16 27 991.3 - 9.4
20/01:00pm 15.8 11.7 10.2 69 3.0 SSW 22 32 12 17 990.8 - 9.4
20/12:30pm 16.4 16.9 14.0 86 1.4 NNE 4 7 2 4 990.3 - 9.4
20/12:00pm 15.8 16.1 14.4 91 0.8 SW 6 13 3 7 990.5 990.1 9.4
20/11:30am 15.0 15.5 14.1 94 0.5 SSE 4 7 2 4 990.6 - 9.2
20/11:00am 14.7 14.2 13.8 94 0.5 S 9 15 5 8 990.8 - 8.4
20/10:30am 14.5 13.2 13.6 94 0.5 S 13 20 7 11 991.0 - 7.4
20/10:00am 14.4 14.4 13.7 96 0.4 W 6 9 3 5 991.7 - 6.0
20/09:30am 14.8 14.4 14.1 96 0.4 S 9 15 5 8 992.3 - 3.0
20/09:00am 14.2 12.2 13.8 97 0.2 SSE 17 20 9 11 992.8 992.4 19.2
20/08:30am 14.5 12.3 13.4 93 0.6 SE 17 24 9 13 993.7 - 15.2
20/08:00am 14.3 13.0 13.6 96 0.4 ESE 13 20 7 11 994.5 - 12.6
20/07:30am 14.0 11.4 13.3 96 0.4 E 19 26 10 14 994.6 - 11.8
20/07:00am 13.9 11.0 12.8 93 0.6 ESE 20 30 11 16 994.8 - 9.0
20/06:30am 13.7 9.6 12.8 94 0.5 E 26 37 14 20 995.3 - 7.8
20/06:00am 13.8 9.6 12.5 92 0.7 E 26 35 14 19 997.2 996.8 5.0
20/05:30am 13.4 9.1 12.1 92 0.7 E 26 39 14 21 997.8 - 3.6
20/05:00am 13.1 8.7 11.8 92 0.7 E 26 33 14 18 999.1 - 2.2
20/04:30am 13.4 9.6 11.0 85 1.3 E 22 32 12 17 1000.7 - 0.0
20/04:00am 13.9 10.1 9.9 77 2.1 E 20 28 11 15 1002.5 - 0.0
20/03:30am 13.7 10.3 9.2 74 2.3 ESE 17 24 9 13 1003.5 - 0.0
20/03:00am 13.6 9.8 9.1 74 2.3 E 19 26 10 14 1004.0 1003.6 0.0
20/02:30am 13.6 10.1 8.9 73 2.4 E 17 20 9 11 1005.5 - 0.0
20/02:00am 13.5 9.6 8.6 72 2.5 E 19 26 10 14 1005.8 - 0.0
20/01:30am 13.3 9.1 8.4 72 2.5 E 20 28 11 15 1005.1 - 0.0
20/01:00am 13.0 8.4 8.2 72 2.4 E 22 28 12 15 1005.5 - 0.0
20/12:30am 12.8 9.2 8.2 73 2.3 E 17 26 9 14 1006.4 - 0.0
20/12:00am 12.6 8.5 8.0 73 2.3 E 19 28 10 15 1006.8 1006.5 0.0
 
Date/Time
EDT
Temp
°C
App
Temp
°C
Dew
Point
°C
Rel
Hum
%
Delta-T
°C
Wind Press
QNH
hPa
Press
MSL
hPa
Rain since
9am
mm
Dir  Spd
km/h
Gust
km/h
Spd
kts
Gust
kts
19/11:30pm 12.8 9.9 8.0 72 2.4 ESE 13 20 7 11 1008.2 - 0.0
19/11:00pm 12.5 8.8 8.1 74 2.2 ESE 17 22 9 12 1008.1 - 0.0
19/10:30pm 12.5 8.8 7.9 73 2.3 E 17 24 9 13 1009.0 - 0.0
19/10:00pm 12.7 8.0 7.6 71 2.5 E 22 33 12 18 1009.2 - 0.0
19/09:30pm 13.0 8.3 7.8 70 2.6 E 22 30 12 16 1009.7 - 0.0
19/09:00pm 13.2 9.5 7.8 70 2.7 E 17 22 9 12 1010.1 1009.8 0.0
19/08:30pm 13.6 9.5 8.0 69 2.8 E 19 26 10 14 1010.7 - 0.0
19/08:00pm 14.1 9.8 7.7 65 3.2 E 20 28 11 15 1011.1 - 0.0
19/07:30pm 14.8 10.8 8.1 64 3.4 ENE 19 26 10 14 1011.5 - 0.0
19/07:00pm 15.8 11.7 7.9 59 4.0 NE 19 24 10 13 1011.5 - 0.0
19/06:30pm 16.2 11.1 7.7 57 4.3 NE 24 32 13 17 1011.4 - 0.0
19/06:00pm 16.7 11.5 7.2 53 4.8 NNE 24 32 13 17 1011.2 1010.9 0.0
19/05:30pm 17.3 11.7 7.2 51 5.1 N 26 35 14 19 1011.7 - 0.0
19/05:00pm 17.4 11.9 7.4 52 5.1 NNE 26 35 14 19 1011.3 - 0.0
19/04:30pm 18.0 12.9 7.7 51 5.3 N 24 30 13 16 1011.7 - 0.0
19/04:00pm 18.8 13.7 7.8 48 5.7 NNE 24 37 13 20 1012.4 - 0.0
19/03:30pm 20.2 16.8 7.7 44 6.5 NNE 15 26 8 14 1013.0 - 0.0
19/03:00pm 19.9 15.5 7.3 44 6.5 N 20 26 11 14 1013.4 1013.1 0.0
19/02:30pm 20.0 15.9 7.7 45 6.4 N 19 26 10 14 1013.6 - 0.0
19/02:00pm 18.8 15.3 7.2 47 5.9 N 15 28 8 15 1013.9 - 0.0
19/01:30pm 18.3 15.9 7.1 48 5.7 NW 9 13 5 7 1014.2 - 0.0
19/01:00pm 17.8 15.7 6.6 48 5.6 NNW 7 17 4 9 1014.5 - 0.0

Other Formats:

Comma delimited format used in spreadsheet applications
http://www.bom.gov.au/fwo/IDT60801/IDT60801.94972.axf

JavaScript Object Notation format (JSON) in row-major order
http://www.bom.gov.au/fwo/IDT60801/IDT60801.94972.json